South Sutton, New Hampshire
Current Conditions -  °F | °C
As of 8:51 AM on Monday 22 Dec 2014 (Local Time) from KCON Reporting Station
Overcast Overcast  
Wind Chill: 31°   Ceiling: 4600
Heat Index: 31°   Visibility: 10mi
Dew Point: 28°   Wind: 3mph
Humidity: 89%   Direction: 350°N
Pressure: 30.39"   Gusts: NA
Location:  43.32°N, 71.93°W
Report Text: KCON 221351Z AUTO 35003KT 10SM OVC046 M01/M02 A3039 RMK AO2 SLP297 T10061022
Loading
Personal Weather Stations






























Interactive Weather Map New forecast layout! Learn more

10-Day Weather Forecast

Advertisements
Track Severe Weather on mobile